createdAt,value
2017-07-15T00:00:31.281Z,22.41
2017-07-15T00:02:58.930Z,22.42
2017-07-15T00:05:26.953Z,22.26
2017-07-15T00:07:54.825Z,22.33
2017-07-15T00:10:22.534Z,22.27
2017-07-15T00:12:50.247Z,22.23
2017-07-15T00:15:17.925Z,22.16
2017-07-15T00:17:45.595Z,22.22
2017-07-15T00:20:13.353Z,22.15
2017-07-15T00:22:41.935Z,22.07
2017-07-15T00:25:10.390Z,21.99
2017-07-15T00:27:38.031Z,22.00
2017-07-15T00:30:06.120Z,22.03
2017-07-15T00:32:33.763Z,22.06
2017-07-15T00:35:01.375Z,21.94
2017-07-15T00:37:29.372Z,21.77
2017-07-15T00:39:57.373Z,21.79
2017-07-15T00:42:25.905Z,21.81
2017-07-15T00:44:53.725Z,21.97
2017-07-15T00:47:21.399Z,21.73
2017-07-15T00:49:49.306Z,21.51
2017-07-15T00:52:17.573Z,21.41
2017-07-15T00:54:45.930Z,21.07
2017-07-15T00:57:13.529Z,21.26
2017-07-15T00:59:41.214Z,21.25
2017-07-15T01:02:08.805Z,21.21
2017-07-15T01:04:36.395Z,21.22
2017-07-15T01:07:03.962Z,21.32
2017-07-15T01:09:31.554Z,21.24
2017-07-15T01:11:59.142Z,21.39
2017-07-15T01:14:27.267Z,21.44
2017-07-15T01:16:55.559Z,21.42
2017-07-15T01:19:23.191Z,21.49
2017-07-15T01:21:50.820Z,21.48
2017-07-15T01:24:19.373Z,21.41
2017-07-15T01:26:46.974Z,21.30
2017-07-15T01:29:14.612Z,21.05
2017-07-15T01:31:42.232Z,21.12
2017-07-15T01:34:09.826Z,21.08
2017-07-15T01:36:37.467Z,21.17
2017-07-15T01:39:05.175Z,21.21
2017-07-15T01:41:33.278Z,21.28
2017-07-15T01:44:00.862Z,21.32
2017-07-15T01:46:28.496Z,21.33
2017-07-15T01:48:56.072Z,21.29
2017-07-15T01:51:23.672Z,21.29
2017-07-15T01:53:51.376Z,21.29
2017-07-15T01:56:19.402Z,21.12
2017-07-15T01:58:47.025Z,21.18
2017-07-15T02:01:14.740Z,21.17
2017-07-15T02:03:42.397Z,21.16
2017-07-15T02:06:10.005Z,20.98
2017-07-15T02:08:37.646Z,20.77
2017-07-15T02:11:05.473Z,20.73
2017-07-15T02:13:33.095Z,20.75
2017-07-15T02:16:00.755Z,20.75
2017-07-15T02:18:28.871Z,20.85
2017-07-15T02:20:56.485Z,20.77
2017-07-15T02:23:24.151Z,20.71
2017-07-15T02:25:51.784Z,20.71
2017-07-15T02:28:19.431Z,20.75
2017-07-15T02:30:47.077Z,20.58
2017-07-15T02:33:14.801Z,20.44
2017-07-15T02:35:42.729Z,20.43
2017-07-15T02:38:10.419Z,20.06
2017-07-15T02:40:38.028Z,20.18
2017-07-15T02:43:05.647Z,20.10
2017-07-15T02:45:33.496Z,20.12
2017-07-15T02:48:01.130Z,20.14
2017-07-15T02:50:28.709Z,20.22
2017-07-15T02:52:56.331Z,20.43
2017-07-15T02:55:24.611Z,20.31
2017-07-15T02:57:52.399Z,20.44
2017-07-15T03:00:20.157Z,20.31
2017-07-15T03:02:47.915Z,20.13
2017-07-15T03:05:15.556Z,20.08
2017-07-15T03:07:43.241Z,19.63
2017-07-15T03:10:10.847Z,19.56
2017-07-15T03:12:38.492Z,19.63
2017-07-15T03:15:06.131Z,19.80
2017-07-15T03:17:33.829Z,19.80
2017-07-15T03:20:01.589Z,19.96
2017-07-15T03:22:29.238Z,20.17
2017-07-15T03:24:57.430Z,20.13
2017-07-15T03:27:35.914Z,20.00
2017-07-15T03:30:07.248Z,20.09
2017-07-15T03:32:35.254Z,20.19
2017-07-15T03:35:02.957Z,20.51
2017-07-15T03:37:30.575Z,20.64
2017-07-15T03:39:58.166Z,20.18
2017-07-15T03:42:25.819Z,20.07
2017-07-15T03:44:54.364Z,20.03
2017-07-15T03:47:21.942Z,19.79
2017-07-15T03:49:49.720Z,19.85
2017-07-15T03:52:17.379Z,19.74
2017-07-15T03:54:44.975Z,19.74
2017-07-15T03:57:12.739Z,19.76
2017-07-15T03:59:40.394Z,20.03
2017-07-15T04:02:08.049Z,19.74
2017-07-15T04:04:35.675Z,19.66
2017-07-15T04:07:03.280Z,19.69
2017-07-15T04:09:30.866Z,19.72
2017-07-15T04:11:58.432Z,19.77
2017-07-15T04:14:26.790Z,19.82
2017-07-15T04:16:55.397Z,19.86
2017-07-15T04:19:22.977Z,19.89
2017-07-15T04:21:50.616Z,20.07
2017-07-15T04:24:18.241Z,20.26
2017-07-15T04:26:45.977Z,20.11
2017-07-15T04:29:13.565Z,20.28
2017-07-15T04:31:41.174Z,20.29
2017-07-15T04:34:09.666Z,20.47
2017-07-15T04:36:37.244Z,20.53
2017-07-15T04:39:04.874Z,20.70
2017-07-15T04:41:32.509Z,20.85
2017-07-15T04:44:00.101Z,20.84
2017-07-15T04:46:27.827Z,20.83
2017-07-15T04:48:56.444Z,21.02
2017-07-15T04:51:24.020Z,21.19
2017-07-15T04:53:52.631Z,21.11
2017-07-15T04:56:20.306Z,21.15
2017-07-15T04:58:47.889Z,21.03
2017-07-15T05:01:15.474Z,21.00
2017-07-15T05:03:44.290Z,21.08
2017-07-15T05:06:12.782Z,21.33
2017-07-15T05:08:40.505Z,21.58
2017-07-15T05:11:08.382Z,21.93
2017-07-15T05:13:36.162Z,22.00
2017-07-15T05:16:03.847Z,21.90
2017-07-15T05:18:31.498Z,22.00
2017-07-15T05:20:59.177Z,22.02
2017-07-15T05:23:27.045Z,22.03
2017-07-15T05:25:54.711Z,22.18
2017-07-15T05:28:22.394Z,22.30
2017-07-15T05:30:50.015Z,22.30
2017-07-15T05:33:18.444Z,22.16
2017-07-15T05:35:46.061Z,22.22
2017-07-15T05:38:13.745Z,22.52
2017-07-15T05:40:41.378Z,22.79
2017-07-15T05:43:09.023Z,22.81
2017-07-15T05:45:36.844Z,22.85
2017-07-15T05:48:04.474Z,22.83
2017-07-15T05:50:32.276Z,23.06
2017-07-15T05:52:59.905Z,23.62
2017-07-15T05:55:27.544Z,23.43
2017-07-15T05:57:55.218Z,23.36
2017-07-15T06:00:23.006Z,23.28
2017-07-15T06:02:50.646Z,23.73
2017-07-15T06:05:18.335Z,24.04
2017-07-15T06:07:46.018Z,23.97
2017-07-15T06:10:13.602Z,23.93
2017-07-15T06:12:41.196Z,23.49
2017-07-15T06:15:08.938Z,23.87
2017-07-15T06:17:36.619Z,23.82
2017-07-15T06:20:04.653Z,23.82
2017-07-15T06:22:32.253Z,23.70
2017-07-15T06:25:00.432Z,23.93
2017-07-15T06:27:28.076Z,24.00
2017-07-15T06:29:56.736Z,23.33
2017-07-15T06:32:24.391Z,23.49
2017-07-15T06:34:51.992Z,23.70
2017-07-15T06:37:19.592Z,24.03
2017-07-15T06:39:47.378Z,24.39
2017-07-15T06:42:14.956Z,24.20
2017-07-15T06:44:42.656Z,24.58
2017-07-15T06:47:10.290Z,24.72
2017-07-15T06:49:37.882Z,24.50
2017-07-15T06:52:05.496Z,24.38
2017-07-15T06:54:34.031Z,24.85
2017-07-15T06:57:01.623Z,24.97
2017-07-15T06:59:29.163Z,25.27
2017-07-15T07:01:56.845Z,25.23
2017-07-15T07:04:24.592Z,24.90
2017-07-15T07:06:53.565Z,24.82
2017-07-15T07:09:21.189Z,25.32
2017-07-15T07:11:48.942Z,25.10
2017-07-15T07:14:17.055Z,24.83
2017-07-15T07:16:45.637Z,24.68
2017-07-15T07:19:13.233Z,24.98
2017-07-15T07:21:40.791Z,25.08
2017-07-15T07:24:08.718Z,25.84
2017-07-15T07:26:36.299Z,25.78
2017-07-15T07:29:04.086Z,25.34
2017-07-15T07:31:31.710Z,25.42
2017-07-15T07:33:59.567Z,25.67
2017-07-15T07:36:27.330Z,25.62
2017-07-15T07:38:54.934Z,25.69
2017-07-15T07:41:22.477Z,25.71
2017-07-15T07:44:06.927Z,26.73
2017-07-15T07:46:40.728Z,26.73
2017-07-15T07:49:08.425Z,26.76
2017-07-15T07:51:36.227Z,27.02
2017-07-15T07:54:04.322Z,26.42
2017-07-15T07:56:31.886Z,26.55
2017-07-15T07:58:59.460Z,26.24
2017-07-15T08:01:27.162Z,26.21
2017-07-15T08:03:54.743Z,26.63
2017-07-15T08:06:22.526Z,27.33
2017-07-15T08:08:50.119Z,26.90
2017-07-15T08:11:17.709Z,26.51
2017-07-15T08:13:46.092Z,26.13
2017-07-15T08:16:13.669Z,26.89
2017-07-15T08:18:41.427Z,27.16
2017-07-15T08:21:09.297Z,27.62
2017-07-15T08:23:36.912Z,28.09
2017-07-15T08:26:04.511Z,27.56
2017-07-15T08:28:32.152Z,27.88
2017-07-15T08:30:59.836Z,27.60
2017-07-15T08:33:27.393Z,26.97
2017-07-15T08:35:55.001Z,27.02
2017-07-15T08:38:22.593Z,27.11
2017-07-15T08:40:50.207Z,26.95
2017-07-15T08:43:19.145Z,27.34
2017-07-15T08:45:46.759Z,27.09
2017-07-15T08:48:14.321Z,26.36
2017-07-15T08:50:42.665Z,26.91
2017-07-15T08:53:10.291Z,26.78
2017-07-15T08:55:37.849Z,27.06
2017-07-15T08:58:05.392Z,27.43
2017-07-15T09:00:33.009Z,27.48
2017-07-15T09:03:00.626Z,27.46
2017-07-15T09:05:28.217Z,27.56
2017-07-15T09:07:55.831Z,27.43
2017-07-15T09:10:23.424Z,27.36
2017-07-15T09:12:51.240Z,27.29
2017-07-15T09:15:18.838Z,27.18
2017-07-15T09:17:46.422Z,27.68
2017-07-15T09:20:13.965Z,27.72
2017-07-15T09:22:41.533Z,27.81
2017-07-15T09:25:09.086Z,28.08
2017-07-15T09:27:36.990Z,28.55
2017-07-15T09:30:08.395Z,28.78
2017-07-15T09:32:35.949Z,28.09
2017-07-15T09:35:03.517Z,27.94
2017-07-15T09:37:31.131Z,28.12
2017-07-15T09:39:58.724Z,28.29
2017-07-15T09:42:26.282Z,28.89
2017-07-15T09:44:53.869Z,29.45
2017-07-15T09:47:21.970Z,29.12
2017-07-15T09:49:49.615Z,28.07
2017-07-15T09:52:17.584Z,27.80
2017-07-15T09:54:45.120Z,27.98
2017-07-15T09:57:12.686Z,28.47
2017-07-15T09:59:40.476Z,29.13
2017-07-15T10:02:08.615Z,28.29
2017-07-15T10:04:36.211Z,28.61
2017-07-15T10:07:03.847Z,29.03
2017-07-15T10:09:31.476Z,28.33
2017-07-15T10:11:59.037Z,28.36
2017-07-15T10:14:26.658Z,28.17
2017-07-15T10:16:55.621Z,28.50
2017-07-15T10:19:23.189Z,28.71
2017-07-15T10:21:50.747Z,28.39
2017-07-15T10:24:18.498Z,27.66
2017-07-15T10:26:46.111Z,27.85
2017-07-15T10:29:13.949Z,27.92
2017-07-15T10:31:41.509Z,27.66
2017-07-15T10:34:09.122Z,27.48
2017-07-15T10:36:36.747Z,27.32
2017-07-15T10:39:04.379Z,27.56
2017-07-15T10:41:32.008Z,27.83
2017-07-15T10:43:59.605Z,27.72
2017-07-15T10:46:27.238Z,27.68
2017-07-15T10:48:55.986Z,27.90
2017-07-15T10:51:23.812Z,27.60
2017-07-15T10:53:51.434Z,27.85
2017-07-15T10:56:18.954Z,28.08
2017-07-15T10:58:47.205Z,28.50
2017-07-15T11:01:15.135Z,28.83
2017-07-15T11:03:43.175Z,28.48
2017-07-15T11:06:11.333Z,28.53
2017-07-15T11:08:39.718Z,28.58
2017-07-15T11:11:07.245Z,28.07
2017-07-15T11:13:34.859Z,27.91
2017-07-15T11:16:02.456Z,28.14
2017-07-15T11:18:30.079Z,28.56
2017-07-15T11:20:57.711Z,28.57
2017-07-15T11:23:25.295Z,28.54
2017-07-15T11:25:52.903Z,28.71
2017-07-15T11:28:20.450Z,28.97
2017-07-15T11:30:48.042Z,28.68
2017-07-15T11:33:19.202Z,28.80
2017-07-15T11:35:49.305Z,28.78
2017-07-15T11:38:19.747Z,28.98
2017-07-15T11:40:49.002Z,29.02
2017-07-15T11:43:18.890Z,28.88
2017-07-15T11:45:47.907Z,28.47
2017-07-15T11:48:16.316Z,28.48
2017-07-15T11:50:43.915Z,28.60
2017-07-15T11:53:12.805Z,28.70
2017-07-15T11:55:40.422Z,28.69
2017-07-15T11:58:08.086Z,28.38
2017-07-15T12:00:35.724Z,28.12
2017-07-15T12:03:03.330Z,28.21
2017-07-15T12:05:30.920Z,28.17
2017-07-15T12:07:58.514Z,27.76
2017-07-15T12:10:26.133Z,27.88
2017-07-15T12:12:53.718Z,28.00
2017-07-15T12:15:21.535Z,28.05
2017-07-15T12:17:49.078Z,27.92
2017-07-15T12:20:16.876Z,27.92
2017-07-15T12:22:44.653Z,27.83
2017-07-15T12:25:12.536Z,27.90
2017-07-15T12:27:40.110Z,27.85
2017-07-15T12:30:07.804Z,27.85
2017-07-15T12:32:35.337Z,27.96
2017-07-15T12:35:02.958Z,28.02
2017-07-15T12:37:31.374Z,27.89
2017-07-15T12:39:58.929Z,27.85
2017-07-15T12:42:26.746Z,28.00
2017-07-15T12:44:54.322Z,27.56
2017-07-15T12:47:21.898Z,27.47
2017-07-15T12:49:49.447Z,27.42
2017-07-15T12:52:17.027Z,27.42
2017-07-15T12:54:44.610Z,27.49
2017-07-15T12:57:12.155Z,27.36
2017-07-15T12:59:39.818Z,27.54
2017-07-15T13:02:07.700Z,27.53
2017-07-15T13:04:35.442Z,27.50
2017-07-15T13:07:02.998Z,27.51
2017-07-15T13:09:31.447Z,27.62
2017-07-15T13:11:58.997Z,27.65
2017-07-15T13:14:26.653Z,27.59
2017-07-15T13:16:54.267Z,27.49
2017-07-15T13:19:21.883Z,27.38
2017-07-15T13:21:49.707Z,27.25
2017-07-15T13:24:17.314Z,27.20
2017-07-15T13:26:44.911Z,27.07
2017-07-15T13:29:12.513Z,26.88
2017-07-15T13:31:40.214Z,26.75
2017-07-15T13:34:07.795Z,26.71
2017-07-15T13:36:35.378Z,26.55
2017-07-15T13:39:03.003Z,26.47
2017-07-15T13:41:30.586Z,26.30
2017-07-15T13:43:58.206Z,26.31
2017-07-15T13:46:25.798Z,26.23
2017-07-15T13:48:53.377Z,25.99
2017-07-15T13:51:23.534Z,25.78
2017-07-15T13:53:52.744Z,25.52
2017-07-15T13:56:20.637Z,25.48
2017-07-15T13:58:48.173Z,25.61
2017-07-15T14:01:16.007Z,25.81
2017-07-15T14:03:43.610Z,25.85
2017-07-15T14:06:11.210Z,25.90
2017-07-15T14:08:38.837Z,25.95
2017-07-15T14:11:06.617Z,26.12
2017-07-15T14:13:34.217Z,26.17
2017-07-15T14:16:01.817Z,26.16
2017-07-15T14:18:29.346Z,25.85
2017-07-15T14:20:56.943Z,25.65
2017-07-15T14:23:27.340Z,25.55
2017-07-15T14:25:55.114Z,25.56
2017-07-15T14:28:22.756Z,25.38
2017-07-15T14:30:50.342Z,25.33
2017-07-15T14:33:18.548Z,25.64
2017-07-15T14:35:46.197Z,25.43
2017-07-15T14:38:13.832Z,25.85
2017-07-15T14:40:41.617Z,26.08
2017-07-15T14:43:09.174Z,26.22
2017-07-15T14:45:37.020Z,26.33
2017-07-15T14:48:04.655Z,26.60
2017-07-15T14:50:32.241Z,26.62
2017-07-15T14:52:59.833Z,26.58
2017-07-15T14:55:27.585Z,26.52
2017-07-15T14:57:55.171Z,26.58
2017-07-15T15:00:22.844Z,26.52
2017-07-15T15:02:51.001Z,26.48
2017-07-15T15:05:18.581Z,26.29
2017-07-15T15:07:47.054Z,26.26
2017-07-15T15:10:14.649Z,26.28
2017-07-15T15:12:42.272Z,26.31
2017-07-15T15:15:09.880Z,26.30
2017-07-15T15:17:37.435Z,26.22
2017-07-15T15:20:04.978Z,26.17
2017-07-15T15:22:32.562Z,26.15
2017-07-15T15:25:00.467Z,26.15
2017-07-15T15:27:28.562Z,26.15
2017-07-15T15:29:56.216Z,26.20
2017-07-15T15:32:23.846Z,26.05
2017-07-15T15:34:51.453Z,26.01
2017-07-15T15:37:19.219Z,25.90
2017-07-15T15:39:46.845Z,25.96
2017-07-15T15:42:16.613Z,25.95
2017-07-15T15:44:44.210Z,25.87
2017-07-15T15:47:12.056Z,25.72
2017-07-15T15:49:39.590Z,25.55
2017-07-15T15:52:07.155Z,25.59
2017-07-15T15:54:34.741Z,25.77
2017-07-15T15:57:02.298Z,25.76
2017-07-15T15:59:29.879Z,25.54
2017-07-15T16:01:57.463Z,25.39
2017-07-15T16:04:25.095Z,25.43
2017-07-15T16:06:52.643Z,25.37
2017-07-15T16:09:20.220Z,25.31
2017-07-15T16:11:47.990Z,25.27
2017-07-15T16:14:15.737Z,25.24
2017-07-15T16:16:43.532Z,25.38
2017-07-15T16:19:11.113Z,25.26
2017-07-15T16:21:38.747Z,25.19
2017-07-15T16:24:06.376Z,25.15
2017-07-15T16:26:33.929Z,25.20
2017-07-15T16:29:01.679Z,25.21
2017-07-15T16:31:29.292Z,25.17
2017-07-15T16:33:56.836Z,25.08
2017-07-15T16:36:24.444Z,25.01
2017-07-15T16:38:52.029Z,25.03
2017-07-15T16:41:23.026Z,25.02
2017-07-15T16:43:51.056Z,25.07
2017-07-15T16:46:24.638Z,25.02
2017-07-15T16:48:54.906Z,25.07
2017-07-15T16:51:22.759Z,25.05
2017-07-15T16:53:50.412Z,25.11
2017-07-15T16:56:18.000Z,25.20
2017-07-15T16:58:45.691Z,25.12
2017-07-15T17:01:13.418Z,25.20
2017-07-15T17:03:42.197Z,25.22
2017-07-15T17:06:10.027Z,25.22
2017-07-15T17:08:37.638Z,24.99
2017-07-15T17:11:05.219Z,25.03
2017-07-15T17:13:33.002Z,25.04
2017-07-15T17:18:37.112Z,24.98
2017-07-15T17:21:04.848Z,25.04
2017-07-15T17:23:32.592Z,25.08
2017-07-15T17:26:00.259Z,25.06
2017-07-15T17:28:27.875Z,25.04
2017-07-15T17:30:55.559Z,24.99
2017-07-15T17:33:23.149Z,24.91
2017-07-15T17:35:50.787Z,24.94
2017-07-15T17:38:18.358Z,24.85
2017-07-15T17:40:46.489Z,24.82
2017-07-15T17:43:14.757Z,24.83
2017-07-15T17:45:42.348Z,24.79
2017-07-15T17:48:10.144Z,24.75
2017-07-15T17:50:37.749Z,24.50
2017-07-15T17:53:05.431Z,24.56
2017-07-15T17:55:33.029Z,24.28
2017-07-15T17:58:00.910Z,23.94
2017-07-15T18:00:28.759Z,23.71
2017-07-15T18:02:56.322Z,23.75
2017-07-15T18:05:23.889Z,23.68
2017-07-15T18:07:51.537Z,23.49
2017-07-15T18:10:19.121Z,23.52
2017-07-15T18:12:46.755Z,23.60
2017-07-15T18:15:14.370Z,23.61
2017-07-15T18:17:41.961Z,23.27
2017-07-15T18:20:09.784Z,23.06
2017-07-15T18:22:37.342Z,22.93
2017-07-15T18:25:04.980Z,22.77
2017-07-15T18:27:32.814Z,22.59
2017-07-15T18:30:00.893Z,22.32
2017-07-15T18:32:28.478Z,22.18
2017-07-15T18:34:56.049Z,22.27
2017-07-15T18:37:23.634Z,22.02
2017-07-15T18:39:51.233Z,22.05
2017-07-15T18:42:18.800Z,22.08
2017-07-15T18:44:47.337Z,22.01
2017-07-15T18:47:14.956Z,22.19
2017-07-15T18:49:42.497Z,22.06
2017-07-15T18:52:10.596Z,22.18
2017-07-15T18:54:38.416Z,22.27
2017-07-15T18:57:06.003Z,22.19
2017-07-15T18:59:33.666Z,22.23
2017-07-15T19:02:01.319Z,22.26
2017-07-15T19:04:28.903Z,22.16
2017-07-15T19:06:56.513Z,22.09
2017-07-15T19:09:24.152Z,22.08
2017-07-15T19:11:51.742Z,22.14
2017-07-15T19:14:19.389Z,22.18
2017-07-15T19:16:47.841Z,22.36
2017-07-15T19:19:15.652Z,22.59
2017-07-15T19:21:43.313Z,22.81
2017-07-15T19:24:11.034Z,23.00
2017-07-15T19:26:38.675Z,23.08
2017-07-15T19:29:07.545Z,23.10
2017-07-15T19:31:35.252Z,23.18
2017-07-15T19:34:03.163Z,23.24
2017-07-15T19:36:32.198Z,23.22
2017-07-15T19:38:59.824Z,23.32
2017-07-15T19:41:28.367Z,23.31
2017-07-15T19:43:57.796Z,23.40
2017-07-15T19:46:25.562Z,23.47
2017-07-15T19:49:06.580Z,23.48
2017-07-15T19:51:34.243Z,23.46
2017-07-15T19:54:02.100Z,23.30
2017-07-15T19:56:29.712Z,23.37
2017-07-15T19:58:57.446Z,23.49
2017-07-15T20:01:25.092Z,23.33
2017-07-15T20:06:30.304Z,23.25
2017-07-15T20:09:01.492Z,23.33
2017-07-15T20:11:29.229Z,23.14
2017-07-15T20:13:56.995Z,22.85
2017-07-15T20:16:24.689Z,22.67
2017-07-15T20:18:52.402Z,22.71
2017-07-15T20:21:20.069Z,22.71
2017-07-15T20:23:48.234Z,22.78
2017-07-15T20:26:15.835Z,22.76
2017-07-15T20:28:43.432Z,22.73
2017-07-15T20:31:11.078Z,22.78
2017-07-15T20:33:38.769Z,22.99
2017-07-15T20:36:12.070Z,23.06
2017-07-15T20:38:39.677Z,23.18
2017-07-15T20:41:07.254Z,23.32
2017-07-15T20:43:34.841Z,23.34
2017-07-15T20:46:02.802Z,23.32
2017-07-15T20:48:30.933Z,23.35
2017-07-15T20:50:58.529Z,23.47
2017-07-15T20:53:41.739Z,23.48
2017-07-15T20:56:09.366Z,23.46
2017-07-15T20:58:36.918Z,23.53
2017-07-15T21:01:04.647Z,23.58
2017-07-15T21:03:32.275Z,23.53
2017-07-15T21:05:59.911Z,23.59
2017-07-15T21:08:28.360Z,23.59
2017-07-15T21:10:55.930Z,23.58
2017-07-15T21:13:23.770Z,23.58
2017-07-15T21:15:51.377Z,23.58
2017-07-15T21:18:18.955Z,23.59
2017-07-15T21:20:46.529Z,23.69
2017-07-15T21:23:14.170Z,23.59
2017-07-15T21:25:41.706Z,23.58
2017-07-15T21:28:09.274Z,23.67
2017-07-15T21:30:36.974Z,23.48
2017-07-15T21:33:04.538Z,23.47
2017-07-15T21:35:32.136Z,23.48
2017-07-15T21:37:59.761Z,23.51
2017-07-15T21:40:32.351Z,23.58
2017-07-15T21:42:59.909Z,23.62
2017-07-15T21:45:27.560Z,23.58
2017-07-15T21:47:55.130Z,23.58
2017-07-15T21:50:22.702Z,23.46
2017-07-15T21:52:50.699Z,23.54
2017-07-15T21:55:18.610Z,23.49
2017-07-15T21:57:47.037Z,23.44
2017-07-15T22:00:14.757Z,23.37
2017-07-15T22:02:42.537Z,23.29
2017-07-15T22:08:29.394Z,23.19
2017-07-15T22:11:05.832Z,23.27
2017-07-15T22:13:36.114Z,23.36
2017-07-15T22:16:03.700Z,23.31
2017-07-15T22:18:31.508Z,23.26
2017-07-15T22:21:00.960Z,23.26
2017-07-15T22:23:28.506Z,23.20
2017-07-15T22:26:19.982Z,23.24
2017-07-15T22:28:47.846Z,23.23
2017-07-15T22:31:15.463Z,23.34
2017-07-15T22:33:43.250Z,23.17
2017-07-15T22:36:11.032Z,23.06
2017-07-15T22:38:38.642Z,23.10
2017-07-15T22:41:06.230Z,22.97
2017-07-15T22:43:34.001Z,23.01
2017-07-15T22:46:01.570Z,22.87
2017-07-15T22:48:29.113Z,22.99
2017-07-15T22:50:56.657Z,23.04
2017-07-15T22:53:24.261Z,22.98
2017-07-15T22:55:51.824Z,22.98
2017-07-15T22:58:20.350Z,23.01
2017-07-15T23:00:48.012Z,23.01
2017-07-15T23:03:15.605Z,23.16
2017-07-15T23:05:43.145Z,23.15
2017-07-15T23:08:10.926Z,23.02
2017-07-15T23:10:38.500Z,22.94
2017-07-15T23:13:06.317Z,22.68
2017-07-15T23:15:33.906Z,22.78
2017-07-15T23:18:01.441Z,22.85
2017-07-15T23:20:29.573Z,22.92
2017-07-15T23:22:57.153Z,23.00
2017-07-15T23:25:24.678Z,23.05
2017-07-15T23:27:52.229Z,23.10
2017-07-15T23:30:19.877Z,23.00
2017-07-15T23:32:47.560Z,23.11
2017-07-15T23:35:15.201Z,23.11
2017-07-15T23:37:42.875Z,23.04
2017-07-15T23:40:10.412Z,23.12
2017-07-15T23:42:38.157Z,23.16
2017-07-15T23:45:06.047Z,23.11
2017-07-15T23:47:33.598Z,23.17
2017-07-15T23:50:01.152Z,23.27
2017-07-15T23:52:28.763Z,23.24
2017-07-15T23:54:56.398Z,23.29
2017-07-15T23:57:23.983Z,23.17
2017-07-15T23:59:51.727Z,23.08
